createdAt,value
2023-01-22T00:02:00.684Z,12.60
2023-01-22T00:04:28.544Z,9.70
2023-01-22T00:06:56.452Z,10.00
2023-01-22T00:09:24.527Z,7.10
2023-01-22T00:11:52.838Z,9.50
2023-01-22T00:14:20.721Z,7.10
2023-01-22T00:16:48.579Z,7.60
2023-01-22T00:19:16.543Z,7.20
2023-01-22T00:21:44.441Z,7.40
2023-01-22T00:24:12.477Z,7.50
2023-01-22T00:26:40.445Z,6.30
2023-01-22T00:29:08.469Z,6.70
2023-01-22T00:31:38.253Z,7.20
2023-01-22T00:34:06.172Z,6.90
2023-01-22T00:36:33.890Z,6.80
2023-01-22T00:39:01.803Z,6.60
2023-01-22T00:41:50.027Z,6.30
2023-01-22T00:44:17.837Z,6.90
2023-01-22T00:46:45.574Z,7.80
2023-01-22T00:49:13.365Z,7.40
2023-01-22T00:52:01.313Z,8.10
2023-01-22T00:54:30.304Z,7.50
2023-01-22T00:56:58.065Z,9.00
2023-01-22T00:59:25.832Z,9.90
2023-01-22T01:01:53.998Z,7.90
2023-01-22T01:04:28.178Z,9.30
2023-01-22T01:06:56.694Z,9.30
2023-01-22T01:09:24.395Z,9.40
2023-01-22T01:11:53.256Z,10.60
2023-01-22T01:14:21.653Z,11.80
2023-01-22T01:16:50.423Z,11.90
2023-01-22T01:19:20.527Z,11.20
2023-01-22T01:21:51.659Z,11.20
2023-01-22T01:24:19.606Z,11.80
2023-01-22T01:26:48.548Z,11.10
2023-01-22T01:29:16.498Z,10.50
2023-01-22T01:31:44.400Z,10.70
2023-01-22T01:34:13.645Z,11.60
2023-01-22T01:36:49.729Z,14.20
2023-01-22T01:39:17.791Z,12.10
2023-01-22T01:41:49.415Z,10.70
2023-01-22T01:44:23.416Z,12.20
2023-01-22T01:47:07.949Z,13.30
2023-01-22T01:49:44.605Z,13.80
2023-01-22T01:52:32.457Z,13.30
2023-01-22T01:55:00.780Z,14.20
2023-01-22T01:57:31.311Z,12.70
2023-01-22T02:00:00.568Z,13.30
2023-01-22T02:02:28.524Z,26.50
2023-01-22T02:05:06.163Z,17.40
2023-01-22T02:07:34.019Z,14.40
2023-01-22T02:10:05.231Z,14.80
2023-01-22T02:12:34.164Z,15.00
2023-01-22T02:15:04.245Z,13.40
2023-01-22T02:17:32.196Z,14.10
2023-01-22T02:20:00.796Z,14.70
2023-01-22T02:22:30.595Z,18.10
2023-01-22T02:24:59.444Z,14.30
2023-01-22T02:27:28.321Z,18.20
2023-01-22T02:29:56.421Z,17.10
2023-01-22T02:32:24.224Z,14.60
2023-01-22T02:34:53.670Z,15.00
2023-01-22T02:37:21.772Z,17.00
2023-01-22T02:39:50.135Z,16.90
2023-01-22T02:42:18.544Z,19.60
2023-01-22T02:45:06.266Z,16.70
2023-01-22T02:55:05.161Z,17.40
2023-01-22T02:57:33.024Z,18.60
2023-01-22T03:00:02.007Z,16.10
2023-01-22T03:02:30.709Z,19.90
2023-01-22T03:05:03.752Z,17.60
2023-01-22T03:07:58.436Z,16.90
2023-01-22T03:10:28.578Z,16.50
2023-01-22T03:13:17.999Z,17.30
2023-01-22T03:16:08.090Z,21.20
2023-01-22T03:18:55.825Z,16.70
2023-01-22T03:21:24.211Z,19.00
2023-01-22T03:23:53.031Z,18.50
2023-01-22T03:26:29.010Z,18.40
2023-01-22T03:28:56.705Z,18.30
2023-01-22T03:31:24.624Z,15.60
2023-01-22T03:33:52.851Z,20.10
2023-01-22T03:36:20.702Z,16.50
2023-01-22T03:38:51.657Z,16.90
2023-01-22T03:41:21.359Z,16.70
2023-01-22T03:43:49.503Z,15.90
2023-01-22T03:46:20.057Z,15.30
2023-01-22T03:48:52.072Z,17.80
2023-01-22T03:51:20.571Z,16.90
2023-01-22T03:53:48.581Z,14.30
2023-01-22T03:56:18.410Z,16.40
2023-01-22T03:58:47.176Z,16.10
2023-01-22T04:01:16.617Z,19.70
2023-01-22T04:03:47.327Z,19.80
2023-01-22T04:06:15.563Z,15.30
2023-01-22T04:08:51.496Z,16.80
2023-01-22T04:11:21.736Z,15.90
2023-01-22T04:13:50.058Z,14.40
2023-01-22T04:16:20.727Z,16.40
2023-01-22T04:19:27.076Z,15.30
2023-01-22T04:22:03.802Z,15.00
2023-01-22T04:24:33.261Z,12.20
2023-01-22T04:27:02.203Z,16.70
2023-01-22T04:29:30.051Z,16.60
2023-01-22T04:31:58.895Z,13.90
2023-01-22T04:34:45.025Z,14.20
2023-01-22T04:37:33.226Z,17.00
2023-01-22T04:40:02.234Z,14.30
2023-01-22T04:42:30.246Z,14.60
2023-01-22T04:44:58.143Z,16.30
2023-01-22T04:47:26.016Z,15.50
2023-01-22T04:49:53.905Z,14.10
2023-01-22T04:52:25.624Z,13.80
2023-01-22T04:54:53.947Z,15.10
2023-01-22T04:57:23.168Z,13.20
2023-01-22T04:59:51.720Z,12.60
2023-01-22T05:02:19.599Z,12.80
2023-01-22T05:04:47.514Z,11.30
2023-01-22T05:07:22.192Z,14.60
2023-01-22T05:09:50.099Z,10.90
2023-01-22T05:12:19.555Z,11.60
2023-01-22T05:14:48.533Z,11.40
2023-01-22T05:17:16.472Z,13.70
2023-01-22T05:19:45.107Z,19.30
2023-01-22T05:22:26.165Z,10.50
2023-01-22T05:24:53.905Z,14.70
2023-01-22T05:27:23.200Z,10.70
2023-01-22T05:30:03.538Z,13.80
2023-01-22T05:33:00.485Z,9.70
2023-01-22T05:35:29.796Z,11.10
2023-01-22T05:37:58.144Z,14.50
2023-01-22T05:40:25.972Z,11.40
2023-01-22T05:42:56.271Z,13.60
2023-01-22T05:45:24.208Z,9.90
2023-01-22T05:48:24.333Z,20.20
2023-01-22T05:51:11.334Z,13.60
2023-01-22T05:53:39.796Z,11.40
2023-01-22T05:56:07.695Z,10.00
2023-01-22T05:58:42.912Z,12.40
2023-01-22T06:01:10.973Z,10.30
2023-01-22T06:03:45.334Z,8.50
2023-01-22T06:06:14.905Z,12.50
2023-01-22T06:08:45.788Z,13.70
2023-01-22T06:11:15.685Z,8.90
2023-01-22T06:13:47.034Z,12.00
2023-01-22T06:16:20.215Z,11.10
2023-01-22T06:19:06.613Z,7.80
2023-01-22T06:21:47.312Z,8.30
2023-01-22T06:24:17.432Z,8.50
2023-01-22T06:26:45.142Z,9.70
2023-01-22T06:29:23.620Z,9.60
2023-01-22T06:31:53.649Z,11.00
2023-01-22T06:34:22.463Z,8.40
2023-01-22T06:36:50.255Z,12.50
2023-01-22T06:39:18.828Z,9.80
2023-01-22T06:41:57.431Z,12.80
2023-01-22T06:44:25.378Z,14.80
2023-01-22T06:46:53.810Z,18.30
2023-01-22T06:49:25.526Z,11.60
2023-01-22T06:51:53.353Z,19.50
2023-01-22T06:54:21.348Z,18.30
2023-01-22T06:56:49.379Z,18.10
2023-01-22T06:59:17.537Z,18.20
2023-01-22T07:01:52.170Z,17.10
2023-01-22T07:04:20.051Z,13.00
2023-01-22T07:06:47.730Z,19.10
2023-01-22T07:09:15.464Z,9.60
2023-01-22T07:12:03.351Z,16.20
2023-01-22T07:14:36.874Z,17.80
2023-01-22T07:19:33.400Z,81.60
2023-01-22T07:22:01.131Z,46.40
2023-01-22T07:24:28.875Z,39.80
2023-01-22T07:26:56.739Z,28.40
2023-01-22T07:29:24.735Z,9.40
2023-01-22T07:31:52.579Z,9.80
2023-01-22T07:34:24.297Z,11.90
2023-01-22T07:36:51.897Z,16.90
2023-01-22T07:39:19.739Z,15.30
2023-01-22T07:41:47.564Z,22.90
2023-01-22T07:44:16.429Z,10.70
2023-01-22T07:46:51.049Z,12.60
2023-01-22T07:49:20.472Z,11.60
2023-01-22T07:51:48.348Z,12.40
2023-01-22T07:54:18.444Z,12.90
2023-01-22T07:56:46.419Z,18.20
2023-01-22T07:59:14.197Z,18.00
2023-01-22T08:01:42.067Z,18.30
2023-01-22T08:04:10.902Z,22.30
2023-01-22T08:06:42.617Z,12.00
2023-01-22T08:09:10.494Z,12.10
2023-01-22T08:11:38.285Z,14.20
2023-01-22T08:14:06.571Z,22.20
2023-01-22T08:16:35.859Z,17.50
2023-01-22T08:19:04.233Z,22.80
2023-01-22T08:21:32.849Z,36.20
2023-01-22T08:24:00.751Z,27.00
2023-01-22T08:26:30.295Z,17.20
2023-01-22T08:29:55.330Z,18.30
2023-01-22T09:16:38.261Z,21.20
2023-01-22T09:23:30.074Z,36.70
2023-01-22T09:30:39.359Z,18.40
2023-01-22T09:33:16.655Z,19.30
2023-01-22T09:36:10.088Z,24.50
2023-01-22T09:38:41.102Z,23.30
2023-01-22T09:41:23.009Z,22.20
2023-01-22T09:43:53.731Z,14.60
2023-01-22T09:46:22.288Z,25.00
2023-01-22T09:48:53.636Z,31.00
2023-01-22T09:51:22.623Z,41.10
2023-01-22T09:53:54.989Z,23.60
2023-01-22T09:56:42.635Z,21.10
2023-01-22T09:59:17.184Z,20.90
2023-01-22T10:01:46.815Z,50.80
2023-01-22T10:04:22.310Z,28.00
2023-01-22T10:07:14.291Z,41.00
2023-01-22T10:09:44.660Z,38.20
2023-01-22T10:12:13.382Z,32.90
2023-01-22T10:14:42.077Z,31.00
2023-01-22T10:17:16.723Z,25.30
2023-01-22T10:20:27.005Z,25.20
2023-01-22T10:23:02.039Z,27.20
2023-01-22T10:25:30.509Z,25.40
2023-01-22T10:28:00.663Z,59.20
2023-01-22T10:30:30.875Z,56.10
2023-01-22T10:33:01.324Z,85.80
2023-01-22T10:35:32.089Z,29.30
2023-01-22T10:38:00.184Z,33.60
2023-01-22T10:40:38.340Z,25.70
2023-01-22T10:43:06.185Z,31.60
2023-01-22T10:45:34.008Z,37.10
2023-01-22T10:48:05.042Z,47.10
2023-01-22T10:50:32.947Z,36.90
2023-01-22T10:53:00.904Z,57.00
2023-01-22T10:55:31.313Z,49.90
2023-01-22T10:58:03.143Z,33.90
2023-01-22T11:00:52.436Z,21.10
2023-01-22T11:03:22.054Z,25.40
2023-01-22T11:06:13.379Z,23.30
2023-01-22T11:08:52.848Z,19.50
2023-01-22T11:11:25.241Z,20.00
2023-01-22T11:14:15.269Z,20.90
2023-01-22T11:16:43.988Z,17.10
2023-01-22T11:19:37.756Z,17.40
2023-01-22T11:22:37.588Z,30.90
2023-01-22T11:25:09.545Z,13.30
2023-01-22T11:27:56.773Z,32.80
2023-01-22T11:30:32.259Z,20.20
2023-01-22T11:33:06.500Z,25.60
2023-01-22T11:35:43.772Z,29.60
2023-01-22T11:38:14.823Z,54.70
2023-01-22T11:40:48.926Z,18.60
2023-01-22T11:43:37.076Z,22.40
2023-01-22T11:46:28.227Z,21.40
2023-01-22T11:49:14.435Z,42.90
2023-01-22T11:51:57.449Z,37.00
2023-01-22T11:54:36.896Z,122.50
2023-01-22T11:57:10.278Z,115.40
2023-01-22T11:59:38.492Z,96.20
2023-01-22T12:02:39.798Z,64.90
2023-01-22T12:05:09.131Z,104.70
2023-01-22T12:07:37.805Z,50.00
2023-01-22T12:10:27.092Z,49.00
2023-01-22T12:13:34.373Z,73.80
2023-01-22T12:16:28.774Z,71.80
2023-01-22T12:19:05.578Z,84.00
2023-01-22T12:21:59.574Z,72.30
2023-01-22T12:24:51.013Z,60.10
2023-01-22T12:27:22.085Z,113.50
2023-01-22T12:29:54.120Z,70.50
2023-01-22T12:32:25.194Z,160.00
2023-01-22T12:34:58.624Z,65.50
2023-01-22T12:37:46.874Z,70.30
2023-01-22T12:40:26.134Z,59.20
2023-01-22T12:43:12.029Z,88.40
2023-01-22T12:45:55.852Z,35.80
2023-01-22T12:48:27.480Z,41.10
2023-01-22T12:50:56.209Z,79.40
2023-01-22T12:53:34.932Z,60.20
2023-01-22T12:56:07.394Z,56.40
2023-01-22T12:58:42.989Z,85.90
2023-01-22T13:01:14.323Z,44.50
2023-01-22T13:03:42.480Z,38.40
2023-01-22T13:06:19.037Z,29.20
2023-01-22T13:08:47.325Z,20.10
2023-01-22T13:11:29.484Z,34.10
2023-01-22T13:14:20.348Z,115.50
2023-01-22T13:16:54.316Z,49.30
2023-01-22T13:19:27.517Z,27.80
2023-01-22T13:22:02.377Z,35.50
2023-01-22T13:24:30.417Z,49.20
2023-01-22T13:27:01.231Z,26.90
2023-01-22T13:29:36.872Z,51.00
2023-01-22T13:32:06.554Z,66.20
2023-01-22T13:34:34.564Z,124.00
2023-01-22T13:37:02.339Z,55.00
2023-01-22T13:39:31.996Z,58.50
2023-01-22T13:42:01.393Z,44.00
2023-01-22T13:44:43.274Z,49.10
2023-01-22T13:47:21.263Z,33.00
2023-01-22T13:49:49.007Z,30.80
2023-01-22T13:52:18.884Z,43.50
2023-01-22T13:54:49.354Z,34.40
2023-01-22T13:57:19.228Z,42.20
2023-01-22T13:59:54.596Z,39.20
2023-01-22T14:02:29.796Z,43.30
2023-01-22T14:04:57.992Z,24.50
2023-01-22T14:07:35.690Z,28.90
2023-01-22T14:10:15.815Z,43.10
2023-01-22T14:15:19.025Z,35.20
2023-01-22T14:17:53.666Z,42.20
2023-01-22T14:20:21.839Z,48.80
2023-01-22T14:22:49.796Z,59.40
2023-01-22T14:25:20.043Z,44.40
2023-01-22T14:27:49.080Z,26.90
2023-01-22T14:30:18.297Z,26.00
2023-01-22T14:32:46.355Z,23.30
2023-01-22T14:35:23.752Z,26.40
2023-01-22T14:37:52.491Z,32.90
2023-01-22T14:40:21.810Z,46.80
2023-01-22T14:42:50.208Z,34.70
2023-01-22T14:45:39.282Z,25.70
2023-01-22T14:48:07.599Z,28.70
2023-01-22T14:50:35.480Z,24.70
2023-01-22T14:53:03.409Z,28.80
2023-01-22T14:55:31.231Z,24.80
2023-01-22T14:58:00.042Z,24.10
2023-01-22T15:00:31.741Z,34.60
2023-01-22T15:02:59.755Z,34.80
2023-01-22T15:05:28.004Z,29.60
2023-01-22T15:07:57.206Z,37.40
2023-01-22T15:10:27.743Z,68.90
2023-01-22T15:12:55.658Z,27.60
2023-01-22T15:15:29.491Z,21.40
2023-01-22T15:18:03.719Z,26.50
2023-01-22T15:20:31.859Z,50.80
2023-01-22T15:22:59.685Z,228.30
2023-01-22T15:25:27.534Z,153.90
2023-01-22T15:27:55.624Z,151.30
2023-01-22T15:30:24.336Z,48.80
2023-01-22T15:32:52.472Z,125.90
2023-01-22T15:35:24.205Z,29.50
2023-01-22T15:38:12.237Z,36.90
2023-01-22T15:40:40.008Z,108.70
2023-01-22T15:43:07.911Z,37.70
2023-01-22T15:45:35.655Z,32.40
2023-01-22T15:48:03.731Z,25.80
2023-01-22T15:50:31.461Z,44.70
2023-01-22T15:52:59.219Z,31.30
2023-01-22T15:55:27.262Z,34.00
2023-01-22T15:57:55.159Z,34.10
2023-01-22T16:00:23.036Z,36.30
2023-01-22T16:02:50.820Z,37.90
2023-01-22T16:05:21.246Z,40.70
2023-01-22T16:07:52.348Z,38.00
2023-01-22T16:10:20.926Z,28.20
2023-01-22T16:12:49.049Z,51.00
2023-01-22T16:15:16.845Z,27.10
2023-01-22T16:17:45.897Z,30.20
2023-01-22T16:20:21.909Z,43.10
2023-01-22T16:22:49.811Z,33.30
2023-01-22T16:25:17.657Z,72.50
2023-01-22T16:27:46.068Z,25.20
2023-01-22T16:30:13.941Z,36.80
2023-01-22T16:32:43.452Z,50.50
2023-01-22T16:35:11.285Z,23.00
2023-01-22T16:37:39.155Z,36.40
2023-01-22T16:40:07.393Z,44.90
2023-01-22T16:42:40.285Z,84.10
2023-01-22T16:45:08.138Z,44.60
2023-01-22T16:47:35.974Z,38.40
2023-01-22T16:50:04.080Z,61.70
2023-01-22T16:52:32.604Z,26.50
2023-01-22T16:55:00.403Z,47.20
2023-01-22T16:57:28.253Z,54.60
2023-01-22T16:59:55.989Z,66.30
2023-01-22T17:02:23.822Z,83.50
2023-01-22T17:04:53.372Z,53.10
2023-01-22T17:07:33.277Z,35.30
2023-01-22T17:10:02.221Z,34.50
2023-01-22T17:12:30.014Z,43.60
2023-01-22T17:14:57.947Z,44.50
2023-01-22T17:17:26.601Z,45.40
2023-01-22T17:19:54.569Z,44.90
2023-01-22T17:22:22.480Z,34.10
2023-01-22T17:24:50.332Z,27.90
2023-01-22T17:27:19.212Z,28.00
2023-01-22T17:29:47.318Z,22.60
2023-01-22T17:32:15.725Z,29.30
2023-01-22T17:34:43.935Z,27.10
2023-01-22T17:37:13.657Z,35.40
2023-01-22T17:39:43.533Z,30.40
2023-01-22T17:42:11.541Z,26.10
2023-01-22T17:44:40.404Z,30.50
2023-01-22T17:47:09.024Z,22.80
2023-01-22T17:49:37.193Z,37.10
2023-01-22T17:52:05.316Z,34.00
2023-01-22T17:54:40.358Z,47.40
2023-01-22T17:57:09.200Z,31.80
2023-01-22T17:59:39.517Z,30.30
2023-01-22T18:02:07.741Z,36.30
2023-01-22T18:04:39.611Z,30.00
2023-01-22T18:07:08.333Z,24.10
2023-01-22T18:09:36.816Z,37.30
2023-01-22T18:12:07.777Z,42.80
2023-01-22T18:14:35.612Z,25.80
2023-01-22T18:17:03.512Z,27.50
2023-01-22T18:19:31.716Z,27.60
2023-01-22T18:22:01.943Z,30.20
2023-01-22T18:24:31.286Z,30.80
2023-01-22T18:27:02.666Z,32.70
2023-01-22T18:29:30.492Z,21.70
2023-01-22T18:31:58.851Z,21.80
2023-01-22T18:34:26.777Z,20.30
2023-01-22T18:36:55.033Z,24.20
2023-01-22T18:39:23.380Z,20.40
2023-01-22T18:41:51.388Z,17.80
2023-01-22T18:44:21.621Z,20.40
2023-01-22T18:46:52.462Z,18.50
2023-01-22T18:49:20.453Z,21.00
2023-01-22T18:51:48.823Z,19.40
2023-01-22T18:54:17.854Z,17.40
2023-01-22T18:56:46.023Z,21.60
2023-01-22T18:59:13.712Z,54.70
2023-01-22T19:01:52.021Z,25.00
2023-01-22T19:04:22.011Z,24.20
2023-01-22T19:06:52.055Z,30.80
2023-01-22T19:09:20.526Z,27.80
2023-01-22T19:11:49.116Z,28.70
2023-01-22T19:14:18.935Z,37.00
2023-01-22T19:16:49.078Z,32.50
2023-01-22T19:19:17.141Z,33.30
2023-01-22T19:21:48.759Z,24.00
2023-01-22T19:24:17.474Z,38.70
2023-01-22T19:26:46.639Z,39.60
2023-01-22T19:29:19.923Z,41.90
2023-01-22T19:31:51.582Z,44.00
2023-01-22T19:34:23.709Z,37.00
2023-01-22T19:36:53.146Z,72.20
2023-01-22T19:39:28.181Z,74.10
2023-01-22T19:42:02.226Z,84.70
2023-01-22T19:47:00.571Z,42.60
2023-01-22T19:49:29.723Z,52.60
2023-01-22T19:52:21.938Z,33.80
2023-01-22T19:54:51.740Z,56.40
2023-01-22T19:57:21.258Z,182.00
2023-01-22T19:59:53.307Z,172.00
2023-01-22T20:02:23.751Z,53.50
2023-01-22T20:04:52.498Z,298.00
2023-01-22T20:07:29.336Z,210.90
2023-01-22T20:10:04.941Z,37.60
2023-01-22T20:12:43.306Z,34.40
2023-01-22T20:15:18.596Z,374.20
2023-01-22T20:17:46.922Z,182.10
2023-01-22T20:20:15.176Z,85.90
2023-01-22T20:22:43.700Z,102.80
2023-01-22T20:25:11.930Z,68.20
2023-01-22T20:27:42.934Z,156.00
2023-01-22T20:30:15.520Z,33.40
2023-01-22T20:32:43.284Z,39.20
2023-01-22T20:35:15.530Z,32.00
2023-01-22T20:37:43.435Z,59.60
2023-01-22T20:40:12.124Z,39.90
2023-01-22T20:42:39.976Z,50.80
2023-01-22T20:45:08.103Z,264.10
2023-01-22T20:47:36.491Z,346.40
2023-01-22T20:50:06.147Z,331.30
2023-01-22T20:52:40.553Z,444.90
2023-01-22T20:55:10.070Z,65.70
2023-01-22T20:57:38.074Z,215.10
2023-01-22T21:00:06.483Z,216.00
2023-01-22T21:02:34.313Z,226.70
2023-01-22T21:05:03.243Z,73.50
2023-01-22T21:07:31.476Z,55.60
2023-01-22T21:09:59.486Z,82.50
2023-01-22T21:12:27.369Z,69.80
2023-01-22T21:14:57.398Z,48.00
2023-01-22T21:17:26.303Z,47.70
2023-01-22T21:19:55.356Z,31.20
2023-01-22T21:22:23.388Z,28.90
2023-01-22T21:24:52.614Z,34.50
2023-01-22T21:27:20.489Z,55.60
2023-01-22T21:29:48.653Z,29.00
2023-01-22T21:32:17.043Z,45.00
2023-01-22T21:34:46.638Z,45.90
2023-01-22T21:37:14.501Z,52.90
2023-01-22T21:39:45.075Z,59.10
2023-01-22T21:42:32.244Z,33.90
2023-01-22T21:45:18.867Z,28.30
2023-01-22T21:47:46.880Z,25.30
2023-01-22T21:50:14.807Z,23.80
2023-01-22T21:52:45.182Z,19.70
2023-01-22T21:55:14.918Z,24.60
2023-01-22T21:57:44.289Z,27.80
2023-01-22T22:00:14.477Z,27.70
2023-01-22T22:02:42.441Z,31.10
2023-01-22T22:05:32.955Z,31.10
2023-01-22T22:08:04.374Z,35.40
2023-01-22T22:10:32.815Z,30.20
2023-01-22T22:13:00.807Z,18.10
2023-01-22T22:15:28.825Z,24.30
2023-01-22T22:17:58.315Z,20.50
2023-01-22T22:20:26.299Z,20.60
2023-01-22T22:22:55.530Z,20.00
2023-01-22T22:25:23.355Z,21.80
2023-01-22T22:27:51.728Z,23.90
2023-01-22T22:30:26.919Z,29.30
2023-01-22T22:32:55.192Z,23.50
2023-01-22T22:35:23.060Z,24.20
2023-01-22T22:37:51.268Z,23.40
2023-01-22T22:40:19.385Z,22.60
2023-01-22T22:42:48.553Z,28.10
2023-01-22T22:45:17.191Z,19.30
2023-01-22T22:47:45.077Z,21.60
2023-01-22T22:50:13.025Z,24.40
2023-01-22T22:52:40.880Z,21.20
2023-01-22T22:55:11.574Z,21.40
2023-01-22T22:57:39.578Z,21.80
2023-01-22T23:00:13.695Z,24.60
2023-01-22T23:02:42.712Z,20.60
2023-01-22T23:05:10.453Z,21.30
2023-01-22T23:07:41.700Z,18.30
2023-01-22T23:10:28.987Z,27.10
2023-01-22T23:12:58.515Z,26.60
2023-01-22T23:15:27.048Z,26.60
2023-01-22T23:17:55.671Z,24.60
2023-01-22T23:20:27.523Z,29.30
2023-01-22T23:22:58.899Z,21.40
2023-01-22T23:25:26.920Z,21.70
2023-01-22T23:27:55.730Z,20.50
2023-01-22T23:30:27.732Z,21.50
2023-01-22T23:32:57.680Z,24.30
2023-01-22T23:35:25.628Z,18.40
2023-01-22T23:37:53.506Z,21.30
2023-01-22T23:40:21.770Z,18.20
2023-01-22T23:42:50.275Z,27.70
2023-01-22T23:45:18.379Z,20.90
2023-01-22T23:47:46.198Z,19.30
2023-01-22T23:50:15.293Z,21.50
2023-01-22T23:52:49.838Z,20.60
2023-01-22T23:55:17.834Z,23.40
2023-01-22T23:57:47.741Z,22.00
